หน้าหลัก
METAR-TAF:

METAR-TAF

ท่าอากาศยาน :

Donegal, ไอร์แลนด์

ละติจูด: 55-02-39N, ลองจิจูด: 8-20-28W, ความสูง: 9 ม.

การสังเกตสภาพอากาศปัจจุบัน

รายงานได้ทำขึ้นเมื่อ 5 ชั่วโมงและ 53 นาทีที่แล้ว ณ เวลา 18:30 UTC
ลม 13 นอตจากเหนือ
อุณหภูมิ 13°C
ความชื้น 67%
ความกดอากาศ 1023 hPa
ทัศนวิสัย 10 กม. หรือมากกว่า
มีเมฆน้อยที่ความสูง 2500 ฟุต
มีเมฆเป็นส่วนมากเว้นเป็นระยะที่ความสูง 4300 ฟุต

METAR: EIDL 181830Z 01013KT 9999 FEW025 BKN043 13/07 Q1023

เวลา: 01:23 (00:23 UTC)

การพยากรณ์

รายงานได้ทำขึ้นเมื่อ 7 ชั่วโมงและ 23 นาทีที่แล้ว ณ เวลา 17:00 UTC
การพยากรณ์มีผลตั้งแต่วันที่ 18 ณ เวลา 18 UTC จนถึงวันที่ 19 ณ เวลา 03 UTC
ลม 15 นอตจากเหนือ
ทัศนวิสัย 10 กม. หรือมากกว่า
มีเมฆเป็นส่วนมากเว้นเป็นระยะที่ความสูง 3500 ฟุต

TAF: EIDL 181700Z 1818/1903 35015KT 9999 BKN035

สังเกตการณ์สภาพอากาศและพยากรณ์อากาศของสนามบินมากกว่า 4000 แห่ง (รายงาน METAR และ TAF).

สถานีที่ดูได้จะแสดงไว้ด้วยจุดสีเหลืองและสีแดงบนแผนที่.

เลื่อนเมาส์ไปเหนือจุดเพื่อดูชื่อสถานี.

แล้วคลิกเพื่อดูสังเกตการณ์และการพยากรณ์สภาพอากาศ.

ในการเปลี่ยนแผนที่: คลิกที่ปุ่มสีเขียวที่มีกากบาทสีดำเพื่อซูมเข้า; ที่ปุ่มสีเขียวที่มีขีดเพื่อซูมออก; หรือที่ลูกศรสีเขียวเพื่อไปยังแผนที่ที่อยู่ติดกัน.


METAR-TAF: